createdAt,value
2019-05-26T00:02:09.217Z,100088.94
2019-05-26T00:04:45.611Z,100084.72
2019-05-26T00:07:30.269Z,100086.21
2019-05-26T00:10:05.183Z,100089.50
2019-05-26T00:12:37.786Z,100086.92
2019-05-26T00:15:14.276Z,100083.22
2019-05-26T00:17:47.317Z,100085.77
2019-05-26T00:20:21.219Z,100084.45
2019-05-26T00:22:54.517Z,100080.02
2019-05-26T00:25:27.186Z,100082.45
2019-05-26T00:28:00.740Z,100080.80
2019-05-26T00:30:33.432Z,100076.12
2019-05-26T00:33:05.969Z,100074.06
2019-05-26T00:35:39.736Z,100071.01
2019-05-26T00:38:13.760Z,100070.03
2019-05-26T00:40:46.636Z,100068.16
2019-05-26T00:43:22.586Z,100068.91
2019-05-26T00:45:55.180Z,100064.53
2019-05-26T00:48:28.039Z,100067.72
2019-05-26T00:51:00.603Z,100060.87
2019-05-26T00:53:33.700Z,100067.25
2019-05-26T00:56:06.416Z,100063.75
2019-05-26T00:58:38.868Z,100063.55
2019-05-26T01:01:12.280Z,100064.07
2019-05-26T01:03:45.631Z,100067.08
2019-05-26T01:06:18.136Z,100064.27
2019-05-26T01:08:50.574Z,100062.64
2019-05-26T01:11:23.590Z,100063.81
2019-05-26T01:13:56.901Z,100064.14
2019-05-26T01:16:29.866Z,100064.11
2019-05-26T01:19:04.037Z,100060.97
2019-05-26T01:21:38.585Z,100059.02
2019-05-26T01:24:12.682Z,100058.53
2019-05-26T01:26:45.299Z,100057.46
2019-05-26T01:29:17.779Z,100058.75
2019-05-26T01:31:50.408Z,100058.41
2019-05-26T01:34:22.986Z,100060.85
2019-05-26T01:36:56.959Z,100047.47
2019-05-26T01:39:31.255Z,100055.81
2019-05-26T01:42:05.708Z,100063.75
2019-05-26T01:44:38.224Z,100060.36
2019-05-26T01:47:10.700Z,100059.48
2019-05-26T01:49:43.300Z,100059.91
2019-05-26T01:52:15.900Z,100060.73
2019-05-26T01:54:48.868Z,100058.17
2019-05-26T01:57:22.047Z,100058.62
2019-05-26T01:59:54.577Z,100055.48
2019-05-26T02:02:27.515Z,100053.25
2019-05-26T02:05:00.151Z,100053.62
2019-05-26T02:07:34.261Z,100055.13
2019-05-26T02:10:09.051Z,100052.88
2019-05-26T02:12:41.601Z,100057.96
2019-05-26T02:15:16.459Z,100051.99
2019-05-26T02:17:48.956Z,100047.91
2019-05-26T02:20:21.635Z,100042.64
2019-05-26T02:22:55.221Z,100045.37
2019-05-26T02:25:28.436Z,100044.52
2019-05-26T02:28:01.004Z,100043.40
2019-05-26T02:30:34.616Z,100043.70
2019-05-26T02:33:07.915Z,100046.58
2019-05-26T02:35:40.492Z,100044.80
2019-05-26T02:38:13.122Z,100049.12
2019-05-26T02:40:45.645Z,100042.81
2019-05-26T02:43:18.289Z,100045.94
2019-05-26T02:45:51.687Z,100049.09
2019-05-26T02:48:25.101Z,100047.36
2019-05-26T02:50:58.666Z,100044.95
2019-05-26T02:53:31.236Z,100038.79
2019-05-26T02:56:03.843Z,100036.61
2019-05-26T02:58:36.380Z,100035.36
2019-05-26T03:01:08.929Z,100030.92
2019-05-26T03:03:41.477Z,100024.05
2019-05-26T03:06:14.106Z,100023.78
2019-05-26T03:08:46.683Z,100024.22
2019-05-26T03:11:19.289Z,100026.66
2019-05-26T03:13:51.823Z,100026.63
2019-05-26T03:16:24.683Z,100029.20
2019-05-26T03:18:59.382Z,100039.52
2019-05-26T03:21:32.775Z,100039.47
2019-05-26T03:24:05.430Z,100035.38
2019-05-26T03:26:38.048Z,100031.53
2019-05-26T03:29:10.570Z,100029.83
2019-05-26T03:31:43.145Z,100030.18
2019-05-26T03:34:15.760Z,100033.73
2019-05-26T03:36:48.462Z,100032.48
2019-05-26T03:39:41.577Z,100038.77
2019-05-26T03:42:25.392Z,100037.54
2019-05-26T03:44:57.981Z,100038.46
2019-05-26T03:47:37.981Z,100031.58
2019-05-26T03:50:11.164Z,100032.72
2019-05-26T03:52:43.725Z,100028.62
2019-05-26T03:55:16.288Z,100030.18
2019-05-26T03:57:48.925Z,100029.59
2019-05-26T04:00:21.445Z,100027.99
2019-05-26T04:02:54.071Z,100028.31
2019-05-26T04:05:26.555Z,100034.11
2019-05-26T04:08:04.262Z,100028.33
2019-05-26T04:10:39.414Z,100035.11
2019-05-26T04:13:11.923Z,100038.36
2019-05-26T04:15:44.522Z,100035.94
2019-05-26T04:18:18.097Z,100029.91
2019-05-26T04:20:50.698Z,100029.27
2019-05-26T04:23:23.512Z,100025.78
2019-05-26T04:25:56.073Z,100025.72
2019-05-26T04:28:28.601Z,100026.46
2019-05-26T04:31:01.960Z,100025.23
2019-05-26T04:33:34.685Z,100025.58
2019-05-26T04:36:07.098Z,100017.16
2019-05-26T04:38:39.703Z,100021.58
2019-05-26T04:41:12.624Z,100022.89
2019-05-26T04:43:45.227Z,100021.75
2019-05-26T04:46:19.618Z,100017.80
2019-05-26T04:48:54.942Z,100013.03
2019-05-26T04:51:32.055Z,100013.06
2019-05-26T04:54:05.553Z,100014.27
2019-05-26T04:56:41.067Z,100014.48
2019-05-26T04:59:14.608Z,100008.55
2019-05-26T05:01:49.687Z,100008.20
2019-05-26T05:04:23.222Z,100010.27
2019-05-26T05:06:55.628Z,100005.11
2019-05-26T05:09:27.971Z,100001.17
2019-05-26T05:12:01.722Z,100001.23
2019-05-26T05:14:35.558Z,100001.20
2019-05-26T05:17:09.294Z,100003.95
2019-05-26T05:19:42.673Z,99997.08
2019-05-26T05:22:19.385Z,99998.88
2019-05-26T05:24:53.004Z,99999.10
2019-05-26T05:27:25.675Z,99993.57
2019-05-26T05:29:58.921Z,99997.60
2019-05-26T05:32:33.025Z,99998.05
2019-05-26T05:35:06.628Z,99999.98
2019-05-26T05:37:39.096Z,99998.98
2019-05-26T05:40:11.541Z,99998.23
2019-05-26T05:42:43.987Z,100005.97
2019-05-26T05:45:16.434Z,100003.31
2019-05-26T05:47:48.847Z,100002.00
2019-05-26T05:50:47.132Z,99998.98
2019-05-26T05:53:21.491Z,99998.86
2019-05-26T05:55:54.096Z,99999.13
2019-05-26T05:58:27.260Z,99999.68
2019-05-26T06:01:00.621Z,99995.70
2019-05-26T06:03:34.380Z,99998.83
2019-05-26T06:06:06.995Z,99989.94
2019-05-26T06:08:39.578Z,99986.82
2019-05-26T06:11:16.695Z,99989.55
2019-05-26T06:13:51.884Z,99987.97
2019-05-26T06:16:24.484Z,99988.19
2019-05-26T06:18:57.067Z,99993.45
2019-05-26T06:21:29.637Z,99989.03
2019-05-26T06:24:02.237Z,99983.53
2019-05-26T06:26:36.426Z,99989.34
2019-05-26T06:29:08.955Z,99985.70
2019-05-26T06:31:41.616Z,99986.18
2019-05-26T06:34:14.316Z,99994.05
2019-05-26T06:36:47.213Z,99992.21
2019-05-26T06:39:19.923Z,99988.41
2019-05-26T06:41:52.512Z,99990.50
2019-05-26T06:44:25.905Z,99985.42
2019-05-26T06:46:58.954Z,99984.98
2019-05-26T06:49:31.596Z,99978.02
2019-05-26T06:52:06.852Z,99978.36
2019-05-26T06:54:40.235Z,99975.44
2019-05-26T06:57:15.628Z,99980.14
2019-05-26T06:59:52.227Z,99973.46
2019-05-26T07:02:24.839Z,99972.46
2019-05-26T07:04:58.351Z,99978.08
2019-05-26T07:07:32.167Z,99976.17
2019-05-26T07:10:06.045Z,99981.45
2019-05-26T07:12:38.480Z,99981.48
2019-05-26T07:15:13.482Z,99983.66
2019-05-26T07:17:45.962Z,99994.60
2019-05-26T07:20:21.390Z,99989.42
2019-05-26T07:22:53.783Z,99985.57
2019-05-26T07:25:27.308Z,99994.37
2019-05-26T07:27:59.775Z,99990.30
2019-05-26T07:30:32.409Z,99997.30
2019-05-26T07:33:06.585Z,99994.63
2019-05-26T07:35:42.275Z,99995.40
2019-05-26T07:38:14.893Z,99981.59
2019-05-26T07:40:47.624Z,99984.16
2019-05-26T07:43:20.144Z,99980.14
2019-05-26T07:45:53.473Z,99989.13
2019-05-26T07:48:25.723Z,99987.09
2019-05-26T07:50:59.805Z,99974.24
2019-05-26T07:53:33.105Z,99974.83
2019-05-26T07:56:05.935Z,99972.99
2019-05-26T07:58:39.471Z,99976.92
2019-05-26T08:01:12.068Z,99970.66
2019-05-26T08:03:49.852Z,99974.16
2019-05-26T08:06:23.422Z,99970.59
2019-05-26T08:08:55.953Z,99974.56
2019-05-26T08:11:29.318Z,99982.34
2019-05-26T08:14:01.997Z,99982.20
2019-05-26T08:16:35.570Z,99974.91
2019-05-26T08:19:09.036Z,99968.87
2019-05-26T08:21:45.564Z,99966.72
2019-05-26T08:24:23.355Z,99966.70
2019-05-26T08:26:56.740Z,99967.51
2019-05-26T08:29:29.309Z,99965.17
2019-05-26T08:32:03.145Z,99958.82
2019-05-26T08:34:37.498Z,99953.77
2019-05-26T08:37:11.008Z,99957.48
2019-05-26T08:39:48.497Z,99952.23
2019-05-26T08:42:27.214Z,99955.27
2019-05-26T08:45:06.841Z,99944.88
2019-05-26T08:47:40.237Z,99937.72
2019-05-26T08:50:14.013Z,99941.63
2019-05-26T08:52:50.465Z,99941.27
2019-05-26T08:55:24.217Z,99947.94
2019-05-26T08:57:57.336Z,99943.77
2019-05-26T09:00:30.582Z,99936.45
2019-05-26T09:03:05.635Z,99933.26
2019-05-26T09:05:38.827Z,99927.80
2019-05-26T09:08:12.291Z,99920.43
2019-05-26T09:10:48.344Z,99930.36
2019-05-26T09:13:21.110Z,99923.75
2019-05-26T09:15:54.878Z,99928.48
2019-05-26T09:18:27.587Z,99925.52
2019-05-26T09:21:00.124Z,99918.44
2019-05-26T09:23:34.698Z,99922.94
2019-05-26T09:26:07.219Z,99913.17
2019-05-26T09:28:39.797Z,99919.85
2019-05-26T09:31:12.496Z,99916.66
2019-05-26T09:33:45.681Z,99907.08
2019-05-26T09:36:19.332Z,99911.13
2019-05-26T09:38:52.185Z,99907.34
2019-05-26T09:41:24.713Z,99903.43
2019-05-26T09:43:57.791Z,99904.44
2019-05-26T09:46:30.607Z,99906.37
2019-05-26T09:49:03.444Z,99902.19
2019-05-26T09:51:37.171Z,99897.72
2019-05-26T09:54:12.712Z,99900.97
2019-05-26T09:56:48.181Z,99902.90
2019-05-26T09:59:21.856Z,99903.70
2019-05-26T10:01:54.565Z,99898.16
2019-05-26T10:04:27.415Z,99896.98
2019-05-26T10:07:00.102Z,99899.41
2019-05-26T10:09:33.726Z,99893.44
2019-05-26T10:12:15.445Z,99896.97
2019-05-26T10:14:48.050Z,99897.41
2019-05-26T10:17:23.765Z,99892.72
2019-05-26T10:20:01.149Z,99893.22
2019-05-26T10:22:34.643Z,99892.83
2019-05-26T10:25:15.690Z,99892.70
2019-05-26T10:28:04.653Z,99891.03
2019-05-26T10:31:00.339Z,99894.52
2019-05-26T10:33:35.055Z,99894.44
2019-05-26T10:36:11.002Z,99896.55
2019-05-26T10:38:45.752Z,99895.89
2019-05-26T10:41:23.526Z,99895.11
2019-05-26T10:43:59.875Z,99896.42
2019-05-26T10:46:39.771Z,99891.05
2019-05-26T10:49:13.181Z,99886.94
2019-05-26T10:51:52.116Z,99886.87
2019-05-26T10:54:35.392Z,99890.21
2019-05-26T10:57:12.219Z,99883.39
2019-05-26T10:59:56.753Z,99882.59
2019-05-26T11:02:39.593Z,99886.46
2019-05-26T11:05:15.734Z,99888.52
2019-05-26T11:07:49.335Z,99882.47
2019-05-26T11:10:23.581Z,99893.52
2019-05-26T11:12:55.980Z,99888.05
2019-05-26T11:15:30.305Z,99880.67
2019-05-26T11:18:07.307Z,99879.58
2019-05-26T11:20:39.810Z,99872.82
2019-05-26T11:23:15.527Z,99877.73
2019-05-26T11:25:48.907Z,99860.16
2019-05-26T11:28:23.437Z,99864.46
2019-05-26T11:30:57.468Z,99852.30
2019-05-26T11:33:29.887Z,99850.09
2019-05-26T11:36:02.358Z,99850.86
2019-05-26T11:38:38.354Z,99852.44
2019-05-26T11:41:15.698Z,99848.84
2019-05-26T11:43:49.665Z,99841.39
2019-05-26T11:46:31.715Z,99845.70
2019-05-26T11:49:12.554Z,99846.23
2019-05-26T11:51:55.685Z,99843.77
2019-05-26T11:54:43.866Z,99836.06
2019-05-26T11:57:22.160Z,99831.93
2019-05-26T12:00:08.212Z,99832.28
2019-05-26T12:03:00.567Z,99832.00
2019-05-26T12:05:43.296Z,99831.01
2019-05-26T12:08:16.508Z,99836.83
2019-05-26T12:10:52.205Z,99831.23
2019-05-26T12:13:26.162Z,99825.52
2019-05-26T12:16:02.285Z,99823.73
2019-05-26T12:18:35.474Z,99814.78
2019-05-26T12:21:15.767Z,99816.20
2019-05-26T12:23:59.818Z,99812.66
2019-05-26T12:26:34.038Z,99804.34
2019-05-26T12:29:06.705Z,99811.31
2019-05-26T12:31:40.748Z,99798.83
2019-05-26T12:34:13.785Z,99796.36
2019-05-26T12:36:47.155Z,99795.02
2019-05-26T12:39:21.412Z,99794.19
2019-05-26T12:41:56.025Z,99794.02
2019-05-26T12:44:29.099Z,99788.30
2019-05-26T12:47:07.786Z,99789.73
2019-05-26T12:49:43.022Z,99788.64
2019-05-26T12:52:23.396Z,99798.69
2019-05-26T12:54:56.667Z,99783.47
2019-05-26T12:57:36.384Z,99800.77
2019-05-26T13:00:11.005Z,99787.66
2019-05-26T13:02:47.474Z,99790.77
2019-05-26T13:05:21.737Z,99788.55
2019-05-26T13:07:58.685Z,99779.94
2019-05-26T13:10:39.526Z,99779.14
2019-05-26T13:13:12.880Z,99777.26
2019-05-26T13:16:01.506Z,99784.22
2019-05-26T13:19:00.790Z,99768.30
2019-05-26T13:21:54.377Z,99766.26
2019-05-26T13:24:29.277Z,99767.52
2019-05-26T13:27:05.207Z,99768.73
2019-05-26T13:29:39.107Z,99775.04
2019-05-26T13:32:14.651Z,99762.52
2019-05-26T13:34:48.822Z,99762.32
2019-05-26T13:37:26.369Z,99763.31
2019-05-26T13:40:10.423Z,99751.88
2019-05-26T13:43:13.817Z,99763.36
2019-05-26T13:45:50.417Z,99762.25
2019-05-26T13:48:24.410Z,99756.03
2019-05-26T13:50:57.734Z,99750.31
2019-05-26T13:53:33.804Z,99767.16
2019-05-26T13:56:13.329Z,99751.16
2019-05-26T13:59:13.133Z,99757.05
2019-05-26T14:01:48.857Z,99737.34
2019-05-26T14:04:24.866Z,99743.25
2019-05-26T14:06:59.952Z,99740.86
2019-05-26T14:09:38.633Z,99732.63
2019-05-26T14:12:53.651Z,99735.86
2019-05-26T14:15:39.595Z,99730.02
2019-05-26T14:18:18.083Z,99725.66
2019-05-26T14:20:57.030Z,99717.62
2019-05-26T14:23:37.325Z,99727.48
2019-05-26T14:26:12.870Z,99720.95
2019-05-26T14:28:46.947Z,99720.68
2019-05-26T14:31:20.476Z,99721.53
2019-05-26T14:33:54.189Z,99717.61
2019-05-26T14:36:26.645Z,99720.80
2019-05-26T14:39:00.750Z,99708.22
2019-05-26T14:41:39.034Z,99712.06
2019-05-26T14:44:12.687Z,99705.41
2019-05-26T14:46:50.132Z,99706.73
2019-05-26T14:49:24.187Z,99699.55
2019-05-26T14:52:02.702Z,99697.35
2019-05-26T14:54:39.280Z,99694.28
2019-05-26T14:57:15.551Z,99694.72
2019-05-26T14:59:55.580Z,99698.18
2019-05-26T15:02:28.892Z,99696.26
2019-05-26T15:05:06.712Z,99687.65
2019-05-26T15:07:45.173Z,99687.33
2019-05-26T15:10:22.837Z,99682.30
2019-05-26T15:12:57.755Z,99684.71
2019-05-26T15:15:35.767Z,99677.55
2019-05-26T15:18:11.273Z,99682.45
2019-05-26T15:20:43.754Z,99684.99
2019-05-26T15:23:17.040Z,99678.84
2019-05-26T15:25:50.888Z,99678.39
2019-05-26T15:28:23.833Z,99669.95
2019-05-26T15:30:56.302Z,99666.13
2019-05-26T15:33:43.971Z,99662.14
2019-05-26T15:36:17.370Z,99663.02
2019-05-26T15:38:50.406Z,99669.59
2019-05-26T15:41:28.363Z,99666.66
2019-05-26T15:44:02.869Z,99659.25
2019-05-26T15:46:36.365Z,99656.95
2019-05-26T15:49:12.797Z,99679.52
2019-05-26T15:51:45.531Z,99655.83
2019-05-26T15:54:20.046Z,99658.23
2019-05-26T15:56:53.294Z,99660.42
2019-05-26T15:59:26.595Z,99665.66
2019-05-26T16:01:59.742Z,99652.08
2019-05-26T16:04:33.875Z,99647.53
2019-05-26T16:07:08.949Z,99646.92
2019-05-26T16:09:42.447Z,99646.27
2019-05-26T16:12:15.648Z,99636.47
2019-05-26T16:14:54.767Z,99637.64
2019-05-26T16:17:29.546Z,99637.72
2019-05-26T16:20:04.101Z,99631.16
2019-05-26T16:22:45.382Z,99627.77
2019-05-26T16:25:24.775Z,99623.65
2019-05-26T16:27:58.607Z,99621.78
2019-05-26T16:30:32.675Z,99620.00
2019-05-26T16:33:07.861Z,99616.14
2019-05-26T16:35:40.587Z,99618.83
2019-05-26T16:38:15.788Z,99613.84
2019-05-26T16:40:49.330Z,99616.62
2019-05-26T16:43:24.200Z,99613.94
2019-05-26T16:45:56.780Z,99608.04
2019-05-26T16:48:30.227Z,99604.81
2019-05-26T16:51:02.834Z,99601.45
2019-05-26T16:53:35.840Z,99594.44
2019-05-26T16:56:09.164Z,99592.30
2019-05-26T16:58:43.077Z,99600.58
2019-05-26T17:01:17.535Z,99598.39
2019-05-26T17:03:53.512Z,99596.43
2019-05-26T17:06:26.047Z,99592.03
2019-05-26T17:08:58.698Z,99594.64
2019-05-26T17:11:33.912Z,99590.94
2019-05-26T17:14:12.573Z,99583.28
2019-05-26T17:16:46.943Z,99586.07
2019-05-26T17:19:22.529Z,99584.23
2019-05-26T17:21:57.584Z,99588.94
2019-05-26T17:24:35.049Z,99580.60
2019-05-26T17:27:07.870Z,99579.59
2019-05-26T17:29:48.482Z,99580.17
2019-05-26T17:32:22.548Z,99583.22
2019-05-26T17:34:56.471Z,99585.41
2019-05-26T17:37:29.496Z,99577.64
2019-05-26T17:40:06.279Z,99571.47
2019-05-26T17:42:40.412Z,99569.81
2019-05-26T17:45:21.928Z,99570.73
2019-05-26T17:47:59.831Z,99577.50
2019-05-26T17:50:35.839Z,99570.14
2019-05-26T17:53:18.865Z,99570.48
2019-05-26T17:55:56.628Z,99569.20
2019-05-26T17:58:32.679Z,99569.73
2019-05-26T18:01:10.386Z,99566.00
2019-05-26T18:03:43.583Z,99559.67
2019-05-26T18:06:17.838Z,99560.35
2019-05-26T18:08:51.426Z,99557.39
2019-05-26T18:11:27.942Z,99555.80
2019-05-26T18:14:03.579Z,99552.05
2019-05-26T18:16:40.577Z,99553.76
2019-05-26T18:19:16.380Z,99543.86
2019-05-26T18:21:48.832Z,99542.86
2019-05-26T18:24:24.839Z,99541.67
2019-05-26T18:27:00.165Z,99541.27
2019-05-26T18:29:40.208Z,99538.41
2019-05-26T18:32:16.042Z,99536.30
2019-05-26T18:34:50.122Z,99534.85
2019-05-26T18:37:30.436Z,99535.69
2019-05-26T18:40:05.620Z,99539.84
2019-05-26T18:42:43.130Z,99537.66
2019-05-26T18:45:22.352Z,99529.13
2019-05-26T18:48:03.136Z,99531.59
2019-05-26T18:50:38.340Z,99529.25
2019-05-26T18:53:14.263Z,99530.77
2019-05-26T18:55:47.692Z,99529.67
2019-05-26T18:58:21.025Z,99529.59
2019-05-26T19:00:56.725Z,99531.45
2019-05-26T19:03:30.921Z,99526.28
2019-05-26T19:06:04.028Z,99519.11
2019-05-26T19:08:47.927Z,99517.42
2019-05-26T19:11:26.643Z,99523.58
2019-05-26T19:14:06.444Z,99514.97
2019-05-26T19:16:41.383Z,99509.33
2019-05-26T19:19:19.285Z,99509.48
2019-05-26T19:21:55.829Z,99520.43
2019-05-26T19:24:29.913Z,99522.81
2019-05-26T19:27:02.564Z,99517.41
2019-05-26T19:29:36.856Z,99521.18
2019-05-26T19:32:09.546Z,99522.34
2019-05-26T19:34:42.073Z,99516.79
2019-05-26T19:37:15.137Z,99522.05
2019-05-26T19:39:52.578Z,99522.63
2019-05-26T19:42:26.638Z,99529.07
2019-05-26T19:45:05.981Z,99533.38
2019-05-26T19:47:40.547Z,99535.36
2019-05-26T19:50:16.414Z,99533.19
2019-05-26T19:52:50.343Z,99537.65
2019-05-26T19:55:26.079Z,99537.30
2019-05-26T19:58:02.696Z,99537.59
2019-05-26T20:00:45.565Z,99537.17
2019-05-26T20:03:20.783Z,99538.36
2019-05-26T20:05:58.234Z,99538.58
2019-05-26T20:08:33.157Z,99537.88
2019-05-26T20:11:06.649Z,99537.86
2019-05-26T20:13:39.205Z,99536.53
2019-05-26T20:16:11.905Z,99537.69
2019-05-26T20:18:45.987Z,99542.45
2019-05-26T20:21:18.669Z,99539.08
2019-05-26T20:23:52.568Z,99543.05
2019-05-26T20:26:25.009Z,99538.48
2019-05-26T20:28:57.622Z,99545.00
2019-05-26T20:31:32.322Z,99540.41
2019-05-26T20:34:11.159Z,99541.54
2019-05-26T20:36:47.465Z,99538.98
2019-05-26T20:39:21.852Z,99534.74
2019-05-26T20:41:55.405Z,99535.22
2019-05-26T20:44:28.041Z,99537.02
2019-05-26T20:47:05.847Z,99542.73
2019-05-26T20:49:45.434Z,99538.31
2019-05-26T20:52:19.754Z,99540.66
2019-05-26T20:54:53.638Z,99537.33
2019-05-26T20:57:26.718Z,99535.97
2019-05-26T21:00:01.103Z,99532.14
2019-05-26T21:02:35.885Z,99532.73
2019-05-26T21:05:08.438Z,99534.23
2019-05-26T21:07:41.866Z,99532.21
2019-05-26T21:10:15.889Z,99535.05
2019-05-26T21:12:49.092Z,99534.16
2019-05-26T21:15:22.828Z,99530.84
2019-05-26T21:17:55.418Z,99528.98
2019-05-26T21:20:28.612Z,99527.22
2019-05-26T21:23:01.201Z,99525.75
2019-05-26T21:25:33.730Z,99521.06
2019-05-26T21:28:08.781Z,99525.85
2019-05-26T21:30:43.703Z,99523.16
2019-05-26T21:33:18.035Z,99519.81
2019-05-26T21:35:51.006Z,99525.58
2019-05-26T21:38:23.614Z,99534.36
2019-05-26T21:40:58.593Z,99524.31
2019-05-26T21:43:34.069Z,99522.02
2019-05-26T21:46:06.896Z,99518.84
2019-05-26T21:48:41.058Z,99526.54
2019-05-26T21:51:15.341Z,99512.84
2019-05-26T21:53:50.944Z,99510.41
2019-05-26T21:56:23.789Z,99508.95
2019-05-26T21:59:00.283Z,99509.50
2019-05-26T22:01:33.136Z,99508.84
2019-05-26T22:04:07.341Z,99509.53
2019-05-26T22:06:41.645Z,99508.11
2019-05-26T22:09:15.794Z,99507.61
2019-05-26T22:11:51.492Z,99508.91
2019-05-26T22:14:26.121Z,99507.23
2019-05-26T22:16:58.792Z,99503.64
2019-05-26T22:19:31.334Z,99496.59
2019-05-26T22:22:03.965Z,99504.37
2019-05-26T22:24:36.606Z,99500.30
2019-05-26T22:27:09.341Z,99500.01
2019-05-26T22:29:42.536Z,99492.41
2019-05-26T22:32:15.104Z,99492.50
2019-05-26T22:34:48.928Z,99491.69
2019-05-26T22:37:21.494Z,99487.59
2019-05-26T22:39:54.581Z,99487.86
2019-05-26T22:42:29.734Z,99482.53
2019-05-26T22:45:07.368Z,99487.22
2019-05-26T22:47:39.953Z,99487.02
2019-05-26T22:50:13.502Z,99492.27
2019-05-26T22:52:46.372Z,99480.77
2019-05-26T22:55:19.079Z,99487.62
2019-05-26T22:57:51.727Z,99490.86
2019-05-26T23:00:25.151Z,99481.97
2019-05-26T23:02:58.599Z,99485.81
2019-05-26T23:05:32.899Z,99476.26
2019-05-26T23:08:05.385Z,99475.16
2019-05-26T23:10:38.637Z,99468.89
2019-05-26T23:13:13.243Z,99462.34
2019-05-26T23:15:46.009Z,99465.20
2019-05-26T23:18:18.603Z,99457.72
2019-05-26T23:20:51.259Z,99461.75
2019-05-26T23:23:24.181Z,99456.35
2019-05-26T23:25:56.832Z,99461.01
2019-05-26T23:28:30.885Z,99449.42
2019-05-26T23:31:06.171Z,99452.69
2019-05-26T23:33:41.759Z,99450.41
2019-05-26T23:36:16.982Z,99453.17
2019-05-26T23:38:50.515Z,99451.28
2019-05-26T23:41:23.243Z,99445.50
2019-05-26T23:43:55.777Z,99449.08
2019-05-26T23:46:28.528Z,99442.61
2019-05-26T23:49:00.984Z,99443.48
2019-05-26T23:51:33.613Z,99435.55
2019-05-26T23:54:07.047Z,99435.22
2019-05-26T23:56:41.536Z,99437.93
2019-05-26T23:59:13.970Z,99434.50
